sensor_id;sensor_type;location;lat;lon;timestamp;P1;durP1;ratioP1;P2;durP2;ratioP2
51066;SDS011;37112;45.892;-123.962;2022-12-07T00:00:07;4.30;;;0.90;;
51066;SDS011;37112;45.892;-123.962;2022-12-07T00:02:41;3.30;;;0.90;;
51066;SDS011;37112;45.892;-123.962;2022-12-07T00:04:55;1.60;;;0.80;;
51066;SDS011;37112;45.892;-123.962;2022-12-07T00:07:08;4.00;;;1.20;;
51066;SDS011;37112;45.892;-123.962;2022-12-07T00:09:21;4.40;;;1.10;;
51066;SDS011;37112;45.892;-123.962;2022-12-07T00:11:35;5.60;;;1.30;;
51066;SDS011;37112;45.892;-123.962;2022-12-07T00:13:51;4.90;;;0.90;;
51066;SDS011;37112;45.892;-123.962;2022-12-07T00:16:05;2.80;;;1.30;;
51066;SDS011;37112;45.892;-123.962;2022-12-07T00:18:20;5.30;;;1.50;;
51066;SDS011;37112;45.892;-123.962;2022-12-07T00:20:35;3.10;;;1.00;;
51066;SDS011;37112;45.892;-123.962;2022-12-07T00:22:51;4.40;;;0.90;;
51066;SDS011;37112;45.892;-123.962;2022-12-07T00:25:07;3.90;;;1.00;;
51066;SDS011;37112;45.892;-123.962;2022-12-07T00:27:20;3.40;;;2.00;;
51066;SDS011;37112;45.892;-123.962;2022-12-07T00:29:34;9.90;;;3.20;;
51066;SDS011;37112;45.892;-123.962;2022-12-07T00:31:47;5.40;;;3.00;;
51066;SDS011;37112;45.892;-123.962;2022-12-07T00:34:01;4.50;;;2.00;;
51066;SDS011;37112;45.892;-123.962;2022-12-07T00:36:15;9.20;;;2.80;;
51066;SDS011;37112;45.892;-123.962;2022-12-07T00:38:33;4.80;;;1.20;;
51066;SDS011;37112;45.892;-123.962;2022-12-07T00:40:55;2.20;;;1.00;;
51066;SDS011;37112;45.892;-123.962;2022-12-07T00:43:09;2.20;;;0.80;;
51066;SDS011;37112;45.892;-123.962;2022-12-07T00:45:23;6.50;;;1.20;;
51066;SDS011;37112;45.892;-123.962;2022-12-07T00:47:36;2.50;;;1.10;;
51066;SDS011;37112;45.892;-123.962;2022-12-07T00:49:50;2.50;;;0.80;;
51066;SDS011;37112;45.892;-123.962;2022-12-07T00:52:03;4.40;;;0.80;;
51066;SDS011;37112;45.892;-123.962;2022-12-07T00:54:16;2.50;;;1.00;;
51066;SDS011;37112;45.892;-123.962;2022-12-07T00:56:30;2.70;;;0.80;;
51066;SDS011;37112;45.892;-123.962;2022-12-07T00:58:43;0.80;;;0.60;;
51066;SDS011;37112;45.892;-123.962;2022-12-07T01:01:02;1.10;;;0.70;;
51066;SDS011;37112;45.892;-123.962;2022-12-07T01:03:17;3.20;;;0.70;;
51066;SDS011;37112;45.892;-123.962;2022-12-07T01:05:30;1.40;;;0.70;;
51066;SDS011;37112;45.892;-123.962;2022-12-07T01:07:44;7.80;;;0.80;;
51066;SDS011;37112;45.892;-123.962;2022-12-07T01:09:57;5.30;;;1.00;;
51066;SDS011;37112;45.892;-123.962;2022-12-07T01:12:10;0.70;;;0.70;;
51066;SDS011;37112;45.892;-123.962;2022-12-07T01:14:24;1.30;;;0.80;;
51066;SDS011;37112;45.892;-123.962;2022-12-07T01:16:38;0.90;;;0.70;;
51066;SDS011;37112;45.892;-123.962;2022-12-07T01:18:51;1.60;;;0.80;;
51066;SDS011;37112;45.892;-123.962;2022-12-07T01:21:06;2.70;;;0.70;;
51066;SDS011;37112;45.892;-123.962;2022-12-07T01:23:21;2.50;;;0.60;;
51066;SDS011;37112;45.892;-123.962;2022-12-07T01:25:35;2.30;;;0.70;;
51066;SDS011;37112;45.892;-123.962;2022-12-07T01:27:48;1.50;;;0.60;;
51066;SDS011;37112;45.892;-123.962;2022-12-07T01:30:02;1.00;;;0.80;;
51066;SDS011;37112;45.892;-123.962;2022-12-07T01:32:16;2.00;;;0.60;;
51066;SDS011;37112;45.892;-123.962;2022-12-07T01:34:30;1.10;;;0.60;;
51066;SDS011;37112;45.892;-123.962;2022-12-07T01:36:42;4.40;;;0.90;;
51066;SDS011;37112;45.892;-123.962;2022-12-07T01:38:56;1.20;;;0.80;;
51066;SDS011;37112;45.892;-123.962;2022-12-07T01:41:11;2.00;;;0.60;;
51066;SDS011;37112;45.892;-123.962;2022-12-07T01:43:25;1.60;;;0.60;;
51066;SDS011;37112;45.892;-123.962;2022-12-07T01:45:41;3.10;;;0.80;;
51066;SDS011;37112;45.892;-123.962;2022-12-07T01:47:55;2.60;;;0.80;;
51066;SDS011;37112;45.892;-123.962;2022-12-07T01:50:10;2.60;;;0.80;;
51066;SDS011;37112;45.892;-123.962;2022-12-07T01:52:23;3.30;;;0.90;;
51066;SDS011;37112;45.892;-123.962;2022-12-07T01:54:40;1.40;;;0.70;;
51066;SDS011;37112;45.892;-123.962;2022-12-07T01:56:54;1.30;;;0.70;;
51066;SDS011;37112;45.892;-123.962;2022-12-07T01:59:10;3.30;;;0.90;;
51066;SDS011;37112;45.892;-123.962;2022-12-07T02:01:23;2.80;;;0.70;;
51066;SDS011;37112;45.892;-123.962;2022-12-07T02:03:38;3.10;;;0.90;;
51066;SDS011;37112;45.892;-123.962;2022-12-07T02:05:53;1.30;;;0.60;;
51066;SDS011;37112;45.892;-123.962;2022-12-07T02:08:07;1.50;;;0.60;;
51066;SDS011;37112;45.892;-123.962;2022-12-07T02:10:23;1.00;;;0.70;;
51066;SDS011;37112;45.892;-123.962;2022-12-07T02:12:38;0.80;;;0.70;;
51066;SDS011;37112;45.892;-123.962;2022-12-07T02:14:52;2.90;;;0.70;;
51066;SDS011;37112;45.892;-123.962;2022-12-07T02:17:10;5.60;;;1.00;;
51066;SDS011;37112;45.892;-123.962;2022-12-07T02:22:22;1.10;;;0.70;;
51066;SDS011;37112;45.892;-123.962;2022-12-07T02:24:52;1.30;;;0.80;;
51066;SDS011;37112;45.892;-123.962;2022-12-07T02:29:57;2.40;;;0.60;;
51066;SDS011;37112;45.892;-123.962;2022-12-07T02:32:13;0.80;;;0.60;;
51066;SDS011;37112;45.892;-123.962;2022-12-07T02:34:33;0.70;;;0.60;;
51066;SDS011;37112;45.892;-123.962;2022-12-07T02:36:54;1.20;;;0.60;;
51066;SDS011;37112;45.892;-123.962;2022-12-07T02:39:14;2.30;;;1.00;;
51066;SDS011;37112;45.892;-123.962;2022-12-07T02:41:31;2.20;;;0.60;;
51066;SDS011;37112;45.892;-123.962;2022-12-07T02:43:48;0.60;;;0.60;;
51066;SDS011;37112;45.892;-123.962;2022-12-07T02:46:06;0.90;;;0.60;;
51066;SDS011;37112;45.892;-123.962;2022-12-07T02:48:23;3.70;;;0.60;;
51066;SDS011;37112;45.892;-123.962;2022-12-07T02:50:38;1.50;;;0.60;;
51066;SDS011;37112;45.892;-123.962;2022-12-07T02:52:54;0.80;;;0.60;;
51066;SDS011;37112;45.892;-123.962;2022-12-07T02:55:08;0.90;;;0.60;;
51066;SDS011;37112;45.892;-123.962;2022-12-07T02:57:26;1.80;;;0.70;;
51066;SDS011;37112;45.892;-123.962;2022-12-07T02:59:56;2.30;;;0.40;;
51066;SDS011;37112;45.892;-123.962;2022-12-07T03:02:17;1.90;;;0.50;;
51066;SDS011;37112;45.892;-123.962;2022-12-07T03:04:37;0.50;;;0.50;;
51066;SDS011;37112;45.892;-123.962;2022-12-07T03:06:57;1.10;;;0.60;;
51066;SDS011;37112;45.892;-123.962;2022-12-07T03:09:17;0.60;;;0.60;;
51066;SDS011;37112;45.892;-123.962;2022-12-07T03:11:41;0.50;;;0.40;;
51066;SDS011;37112;45.892;-123.962;2022-12-07T03:14:00;0.50;;;0.50;;
51066;SDS011;37112;45.892;-123.962;2022-12-07T03:16:23;0.60;;;0.50;;
51066;SDS011;37112;45.892;-123.962;2022-12-07T03:18:42;2.20;;;0.50;;
51066;SDS011;37112;45.892;-123.962;2022-12-07T03:21:01;1.20;;;0.50;;
51066;SDS011;37112;45.892;-123.962;2022-12-07T03:23:17;0.50;;;0.50;;
51066;SDS011;37112;45.892;-123.962;2022-12-07T03:25:32;1.20;;;0.60;;
51066;SDS011;37112;45.892;-123.962;2022-12-07T03:27:51;0.50;;;0.50;;
51066;SDS011;37112;45.892;-123.962;2022-12-07T03:30:09;0.40;;;0.40;;
51066;SDS011;37112;45.892;-123.962;2022-12-07T03:32:27;0.60;;;0.60;;
51066;SDS011;37112;45.892;-123.962;2022-12-07T03:34:47;0.40;;;0.40;;
51066;SDS011;37112;45.892;-123.962;2022-12-07T03:37:07;2.20;;;1.40;;
51066;SDS011;37112;45.892;-123.962;2022-12-07T03:39:26;0.60;;;0.50;;
51066;SDS011;37112;45.892;-123.962;2022-12-07T03:41:44;0.70;;;0.50;;
51066;SDS011;37112;45.892;-123.962;2022-12-07T03:43:58;2.00;;;0.50;;
51066;SDS011;37112;45.892;-123.962;2022-12-07T03:46:15;0.60;;;0.60;;
51066;SDS011;37112;45.892;-123.962;2022-12-07T03:48:40;0.60;;;0.50;;
51066;SDS011;37112;45.892;-123.962;2022-12-07T03:51:00;0.60;;;0.60;;
51066;SDS011;37112;45.892;-123.962;2022-12-07T03:53:18;2.90;;;0.60;;
51066;SDS011;37112;45.892;-123.962;2022-12-07T03:55:35;0.50;;;0.50;;
51066;SDS011;37112;45.892;-123.962;2022-12-07T03:57:52;0.60;;;0.50;;
51066;SDS011;37112;45.892;-123.962;2022-12-07T04:00:09;0.80;;;0.60;;
51066;SDS011;37112;45.892;-123.962;2022-12-07T04:02:23;0.50;;;0.50;;
51066;SDS011;37112;45.892;-123.962;2022-12-07T04:04:38;0.70;;;0.60;;
51066;SDS011;37112;45.892;-123.962;2022-12-07T04:06:53;2.10;;;0.70;;
51066;SDS011;37112;45.892;-123.962;2022-12-07T04:09:06;4.30;;;2.30;;
51066;SDS011;37112;45.892;-123.962;2022-12-07T04:11:19;5.30;;;2.90;;
51066;SDS011;37112;45.892;-123.962;2022-12-07T04:13:33;2.50;;;2.10;;
51066;SDS011;37112;45.892;-123.962;2022-12-07T04:15:59;3.70;;;2.00;;
51066;SDS011;37112;45.892;-123.962;2022-12-07T04:18:12;2.10;;;1.90;;
51066;SDS011;37112;45.892;-123.962;2022-12-07T04:20:25;4.30;;;1.70;;
51066;SDS011;37112;45.892;-123.962;2022-12-07T04:22:39;2.90;;;1.30;;
51066;SDS011;37112;45.892;-123.962;2022-12-07T04:24:52;1.00;;;0.90;;
51066;SDS011;37112;45.892;-123.962;2022-12-07T04:27:05;1.20;;;1.10;;
51066;SDS011;37112;45.892;-123.962;2022-12-07T04:29:19;1.20;;;0.90;;
51066;SDS011;37112;45.892;-123.962;2022-12-07T04:31:32;1.00;;;0.80;;
51066;SDS011;37112;45.892;-123.962;2022-12-07T04:33:46;1.30;;;1.20;;
51066;SDS011;37112;45.892;-123.962;2022-12-07T04:36:00;2.90;;;1.00;;
51066;SDS011;37112;45.892;-123.962;2022-12-07T04:38:13;1.70;;;0.80;;
51066;SDS011;37112;45.892;-123.962;2022-12-07T04:40:26;3.00;;;0.80;;
51066;SDS011;37112;45.892;-123.962;2022-12-07T04:42:39;1.30;;;0.80;;
51066;SDS011;37112;45.892;-123.962;2022-12-07T04:44:53;0.90;;;0.70;;
51066;SDS011;37112;45.892;-123.962;2022-12-07T04:47:06;3.00;;;0.60;;
51066;SDS011;37112;45.892;-123.962;2022-12-07T04:49:19;2.60;;;0.60;;
51066;SDS011;37112;45.892;-123.962;2022-12-07T04:51:33;0.50;;;0.50;;
51066;SDS011;37112;45.892;-123.962;2022-12-07T04:53:47;0.60;;;0.60;;
51066;SDS011;37112;45.892;-123.962;2022-12-07T04:56:00;1.00;;;0.60;;
51066;SDS011;37112;45.892;-123.962;2022-12-07T04:58:14;0.70;;;0.60;;
51066;SDS011;37112;45.892;-123.962;2022-12-07T05:00:27;0.50;;;0.50;;
51066;SDS011;37112;45.892;-123.962;2022-12-07T05:02:41;0.60;;;0.60;;
51066;SDS011;37112;45.892;-123.962;2022-12-07T05:04:54;2.30;;;0.60;;
51066;SDS011;37112;45.892;-123.962;2022-12-07T05:07:08;0.60;;;0.60;;
51066;SDS011;37112;45.892;-123.962;2022-12-07T05:09:21;1.10;;;0.70;;
51066;SDS011;37112;45.892;-123.962;2022-12-07T05:11:35;0.60;;;0.60;;
51066;SDS011;37112;45.892;-123.962;2022-12-07T05:13:48;0.70;;;0.70;;
51066;SDS011;37112;45.892;-123.962;2022-12-07T05:16:01;1.30;;;0.80;;
51066;SDS011;37112;45.892;-123.962;2022-12-07T05:18:15;0.80;;;0.60;;
51066;SDS011;37112;45.892;-123.962;2022-12-07T05:20:29;4.80;;;1.40;;
51066;SDS011;37112;45.892;-123.962;2022-12-07T05:22:48;0.50;;;0.50;;
51066;SDS011;37112;45.892;-123.962;2022-12-07T05:25:01;1.70;;;0.50;;
51066;SDS011;37112;45.892;-123.962;2022-12-07T05:27:15;0.70;;;0.70;;
51066;SDS011;37112;45.892;-123.962;2022-12-07T05:29:28;1.00;;;0.60;;
51066;SDS011;37112;45.892;-123.962;2022-12-07T05:31:42;0.50;;;0.50;;
51066;SDS011;37112;45.892;-123.962;2022-12-07T05:33:55;0.90;;;0.50;;
51066;SDS011;37112;45.892;-123.962;2022-12-07T05:36:09;0.60;;;0.60;;
51066;SDS011;37112;45.892;-123.962;2022-12-07T05:38:22;0.50;;;0.50;;
51066;SDS011;37112;45.892;-123.962;2022-12-07T05:40:35;1.40;;;0.70;;
51066;SDS011;37112;45.892;-123.962;2022-12-07T05:42:49;0.70;;;0.70;;
51066;SDS011;37112;45.892;-123.962;2022-12-07T05:45:10;1.50;;;0.80;;
51066;SDS011;37112;45.892;-123.962;2022-12-07T05:47:23;0.80;;;0.80;;
51066;SDS011;37112;45.892;-123.962;2022-12-07T05:49:37;0.90;;;0.80;;
51066;SDS011;37112;45.892;-123.962;2022-12-07T05:51:50;0.70;;;0.70;;
51066;SDS011;37112;45.892;-123.962;2022-12-07T05:54:03;1.00;;;0.70;;
51066;SDS011;37112;45.892;-123.962;2022-12-07T05:56:17;0.50;;;0.50;;
51066;SDS011;37112;45.892;-123.962;2022-12-07T05:58:31;0.60;;;0.60;;
51066;SDS011;37112;45.892;-123.962;2022-12-07T06:01:00;1.20;;;0.50;;
51066;SDS011;37112;45.892;-123.962;2022-12-07T06:03:14;0.50;;;0.50;;
51066;SDS011;37112;45.892;-123.962;2022-12-07T06:05:27;0.40;;;0.40;;
51066;SDS011;37112;45.892;-123.962;2022-12-07T06:07:41;3.40;;;0.60;;
51066;SDS011;37112;45.892;-123.962;2022-12-07T06:09:54;0.70;;;0.50;;
51066;SDS011;37112;45.892;-123.962;2022-12-07T06:12:08;0.60;;;0.50;;
51066;SDS011;37112;45.892;-123.962;2022-12-07T06:14:39;0.50;;;0.50;;
51066;SDS011;37112;45.892;-123.962;2022-12-07T06:16:52;0.70;;;0.70;;
51066;SDS011;37112;45.892;-123.962;2022-12-07T06:19:06;1.20;;;1.60;;
51066;SDS011;37112;45.892;-123.962;2022-12-07T06:21:19;1.10;;;1.00;;
51066;SDS011;37112;45.892;-123.962;2022-12-07T06:23:33;1.30;;;1.20;;
51066;SDS011;37112;45.892;-123.962;2022-12-07T06:25:47;0.70;;;0.70;;
51066;SDS011;37112;45.892;-123.962;2022-12-07T06:28:00;0.90;;;0.80;;
51066;SDS011;37112;45.892;-123.962;2022-12-07T06:30:13;0.80;;;0.60;;
51066;SDS011;37112;45.892;-123.962;2022-12-07T06:32:27;2.20;;;0.60;;
51066;SDS011;37112;45.892;-123.962;2022-12-07T06:34:40;0.50;;;0.50;;
51066;SDS011;37112;45.892;-123.962;2022-12-07T06:36:54;2.20;;;0.50;;
51066;SDS011;37112;45.892;-123.962;2022-12-07T06:39:08;3.90;;;0.60;;
51066;SDS011;37112;45.892;-123.962;2022-12-07T06:41:21;0.60;;;0.60;;
51066;SDS011;37112;45.892;-123.962;2022-12-07T06:43:35;0.70;;;0.70;;
51066;SDS011;37112;45.892;-123.962;2022-12-07T06:45:48;3.70;;;1.30;;
51066;SDS011;37112;45.892;-123.962;2022-12-07T06:48:01;2.20;;;0.70;;
51066;SDS011;37112;45.892;-123.962;2022-12-07T06:50:15;1.70;;;0.70;;
51066;SDS011;37112;45.892;-123.962;2022-12-07T06:52:28;3.30;;;1.20;;
51066;SDS011;37112;45.892;-123.962;2022-12-07T06:54:43;4.80;;;2.30;;
51066;SDS011;37112;45.892;-123.962;2022-12-07T06:56:56;1.20;;;1.00;;
51066;SDS011;37112;45.892;-123.962;2022-12-07T06:59:10;3.60;;;1.00;;
51066;SDS011;37112;45.892;-123.962;2022-12-07T07:01:23;3.70;;;1.20;;
51066;SDS011;37112;45.892;-123.962;2022-12-07T07:03:36;1.50;;;0.70;;
51066;SDS011;37112;45.892;-123.962;2022-12-07T07:05:49;0.80;;;0.60;;
51066;SDS011;37112;45.892;-123.962;2022-12-07T07:08:02;0.70;;;0.50;;
51066;SDS011;37112;45.892;-123.962;2022-12-07T07:10:31;6.20;;;0.70;;
51066;SDS011;37112;45.892;-123.962;2022-12-07T07:12:44;0.50;;;0.50;;
51066;SDS011;37112;45.892;-123.962;2022-12-07T07:15:03;0.50;;;0.50;;
51066;SDS011;37112;45.892;-123.962;2022-12-07T07:17:17;0.50;;;0.50;;
51066;SDS011;37112;45.892;-123.962;2022-12-07T07:19:31;1.30;;;0.50;;
51066;SDS011;37112;45.892;-123.962;2022-12-07T07:21:45;0.40;;;0.40;;
51066;SDS011;37112;45.892;-123.962;2022-12-07T07:23:58;0.90;;;0.50;;
51066;SDS011;37112;45.892;-123.962;2022-12-07T07:26:11;1.50;;;0.50;;
51066;SDS011;37112;45.892;-123.962;2022-12-07T07:28:29;0.50;;;0.50;;
51066;SDS011;37112;45.892;-123.962;2022-12-07T07:30:42;0.50;;;0.50;;
51066;SDS011;37112;45.892;-123.962;2022-12-07T07:32:57;1.30;;;0.60;;
51066;SDS011;37112;45.892;-123.962;2022-12-07T07:35:11;1.30;;;0.60;;
51066;SDS011;37112;45.892;-123.962;2022-12-07T07:37:25;0.50;;;0.50;;
51066;SDS011;37112;45.892;-123.962;2022-12-07T07:39:38;2.70;;;0.60;;
51066;SDS011;37112;45.892;-123.962;2022-12-07T07:41:51;0.50;;;0.50;;
51066;SDS011;37112;45.892;-123.962;2022-12-07T07:44:05;0.60;;;0.60;;
51066;SDS011;37112;45.892;-123.962;2022-12-07T07:46:19;0.50;;;0.50;;
51066;SDS011;37112;45.892;-123.962;2022-12-07T07:48:32;0.50;;;0.50;;
51066;SDS011;37112;45.892;-123.962;2022-12-07T07:50:46;1.50;;;0.70;;
51066;SDS011;37112;45.892;-123.962;2022-12-07T07:52:59;0.60;;;0.60;;
51066;SDS011;37112;45.892;-123.962;2022-12-07T07:55:12;0.70;;;0.70;;
51066;SDS011;37112;45.892;-123.962;2022-12-07T07:57:26;0.50;;;0.50;;
51066;SDS011;37112;45.892;-123.962;2022-12-07T07:59:39;0.50;;;0.50;;
51066;SDS011;37112;45.892;-123.962;2022-12-07T08:01:52;1.70;;;0.50;;
51066;SDS011;37112;45.892;-123.962;2022-12-07T08:04:05;2.60;;;0.60;;
51066;SDS011;37112;45.892;-123.962;2022-12-07T08:06:19;2.80;;;0.50;;
51066;SDS011;37112;45.892;-123.962;2022-12-07T08:08:38;0.80;;;0.50;;
51066;SDS011;37112;45.892;-123.962;2022-12-07T08:10:51;0.60;;;0.60;;
51066;SDS011;37112;45.892;-123.962;2022-12-07T08:13:08;0.80;;;0.60;;
51066;SDS011;37112;45.892;-123.962;2022-12-07T08:15:21;0.50;;;0.50;;
51066;SDS011;37112;45.892;-123.962;2022-12-07T08:17:35;0.60;;;0.60;;
51066;SDS011;37112;45.892;-123.962;2022-12-07T08:19:48;0.50;;;0.50;;
51066;SDS011;37112;45.892;-123.962;2022-12-07T08:22:01;0.60;;;0.50;;
51066;SDS011;37112;45.892;-123.962;2022-12-07T08:24:15;1.00;;;0.50;;
51066;SDS011;37112;45.892;-123.962;2022-12-07T08:26:29;1.60;;;0.40;;
51066;SDS011;37112;45.892;-123.962;2022-12-07T08:28:42;1.80;;;0.50;;
51066;SDS011;37112;45.892;-123.962;2022-12-07T08:31:00;1.10;;;0.50;;
51066;SDS011;37112;45.892;-123.962;2022-12-07T08:33:14;3.00;;;0.50;;
51066;SDS011;37112;45.892;-123.962;2022-12-07T08:35:32;2.20;;;0.50;;
51066;SDS011;37112;45.892;-123.962;2022-12-07T08:37:45;1.20;;;0.60;;
51066;SDS011;37112;45.892;-123.962;2022-12-07T08:39:59;0.90;;;0.50;;
51066;SDS011;37112;45.892;-123.962;2022-12-07T08:42:12;0.60;;;0.60;;
51066;SDS011;37112;45.892;-123.962;2022-12-07T08:44:26;0.60;;;0.50;;
51066;SDS011;37112;45.892;-123.962;2022-12-07T08:46:39;1.60;;;1.50;;
51066;SDS011;37112;45.892;-123.962;2022-12-07T08:48:56;0.70;;;0.50;;
51066;SDS011;37112;45.892;-123.962;2022-12-07T08:51:13;0.50;;;0.50;;
51066;SDS011;37112;45.892;-123.962;2022-12-07T08:53:27;1.20;;;0.50;;
51066;SDS011;37112;45.892;-123.962;2022-12-07T08:55:41;0.50;;;0.50;;
51066;SDS011;37112;45.892;-123.962;2022-12-07T08:57:55;1.10;;;0.50;;
51066;SDS011;37112;45.892;-123.962;2022-12-07T09:00:11;0.50;;;0.50;;
51066;SDS011;37112;45.892;-123.962;2022-12-07T09:02:26;1.30;;;0.60;;
51066;SDS011;37112;45.892;-123.962;2022-12-07T09:04:40;0.70;;;0.60;;
51066;SDS011;37112;45.892;-123.962;2022-12-07T09:06:53;0.50;;;0.50;;
51066;SDS011;37112;45.892;-123.962;2022-12-07T09:09:07;1.00;;;0.60;;
51066;SDS011;37112;45.892;-123.962;2022-12-07T09:11:21;0.40;;;0.40;;
51066;SDS011;37112;45.892;-123.962;2022-12-07T09:13:35;3.50;;;0.50;;
51066;SDS011;37112;45.892;-123.962;2022-12-07T09:15:48;0.50;;;0.50;;
51066;SDS011;37112;45.892;-123.962;2022-12-07T09:18:01;0.50;;;0.50;;
51066;SDS011;37112;45.892;-123.962;2022-12-07T09:20:15;1.80;;;0.50;;
51066;SDS011;37112;45.892;-123.962;2022-12-07T09:22:33;4.20;;;1.00;;
51066;SDS011;37112;45.892;-123.962;2022-12-07T09:24:47;1.20;;;0.50;;
51066;SDS011;37112;45.892;-123.962;2022-12-07T09:27:00;2.00;;;0.60;;
51066;SDS011;37112;45.892;-123.962;2022-12-07T09:29:13;0.50;;;0.50;;
51066;SDS011;37112;45.892;-123.962;2022-12-07T09:31:27;0.50;;;0.50;;
51066;SDS011;37112;45.892;-123.962;2022-12-07T09:33:40;2.30;;;0.60;;
51066;SDS011;37112;45.892;-123.962;2022-12-07T09:35:54;0.50;;;0.40;;
51066;SDS011;37112;45.892;-123.962;2022-12-07T09:38:07;0.50;;;0.50;;
51066;SDS011;37112;45.892;-123.962;2022-12-07T09:40:21;0.60;;;0.40;;
51066;SDS011;37112;45.892;-123.962;2022-12-07T09:42:36;0.50;;;0.50;;
51066;SDS011;37112;45.892;-123.962;2022-12-07T09:44:51;0.40;;;0.40;;
51066;SDS011;37112;45.892;-123.962;2022-12-07T09:47:05;3.50;;;0.50;;
51066;SDS011;37112;45.892;-123.962;2022-12-07T09:49:21;0.50;;;0.50;;
51066;SDS011;37112;45.892;-123.962;2022-12-07T09:51:38;1.30;;;0.50;;
51066;SDS011;37112;45.892;-123.962;2022-12-07T09:53:52;1.50;;;0.60;;
51066;SDS011;37112;45.892;-123.962;2022-12-07T09:56:10;1.10;;;0.50;;
51066;SDS011;37112;45.892;-123.962;2022-12-07T09:58:26;0.80;;;0.60;;
51066;SDS011;37112;45.892;-123.962;2022-12-07T10:00:41;4.90;;;1.50;;
51066;SDS011;37112;45.892;-123.962;2022-12-07T10:02:55;0.60;;;0.50;;
51066;SDS011;37112;45.892;-123.962;2022-12-07T10:05:11;0.40;;;0.40;;
51066;SDS011;37112;45.892;-123.962;2022-12-07T10:07:31;0.50;;;0.50;;
51066;SDS011;37112;45.892;-123.962;2022-12-07T10:09:45;2.70;;;0.60;;
51066;SDS011;37112;45.892;-123.962;2022-12-07T10:12:03;1.10;;;0.50;;
51066;SDS011;37112;45.892;-123.962;2022-12-07T10:14:18;0.50;;;0.50;;
51066;SDS011;37112;45.892;-123.962;2022-12-07T10:16:52;1.70;;;0.60;;
51066;SDS011;37112;45.892;-123.962;2022-12-07T10:21:41;1.70;;;0.60;;
51066;SDS011;37112;45.892;-123.962;2022-12-07T10:24:15;0.50;;;0.50;;
51066;SDS011;37112;45.892;-123.962;2022-12-07T10:26:29;0.60;;;0.50;;
51066;SDS011;37112;45.892;-123.962;2022-12-07T10:28:43;3.90;;;1.60;;
51066;SDS011;37112;45.892;-123.962;2022-12-07T10:30:58;0.50;;;0.50;;
51066;SDS011;37112;45.892;-123.962;2022-12-07T10:33:17;1.70;;;0.60;;
51066;SDS011;37112;45.892;-123.962;2022-12-07T10:35:42;0.70;;;0.70;;
51066;SDS011;37112;45.892;-123.962;2022-12-07T10:37:56;0.70;;;0.70;;
51066;SDS011;37112;45.892;-123.962;2022-12-07T10:40:23;0.40;;;0.40;;
51066;SDS011;37112;45.892;-123.962;2022-12-07T10:42:41;0.50;;;0.50;;
51066;SDS011;37112;45.892;-123.962;2022-12-07T10:45:13;0.80;;;0.50;;
51066;SDS011;37112;45.892;-123.962;2022-12-07T10:47:32;0.80;;;0.50;;
51066;SDS011;37112;45.892;-123.962;2022-12-07T10:50:02;0.50;;;0.50;;
51066;SDS011;37112;45.892;-123.962;2022-12-07T10:52:33;1.30;;;0.50;;
51066;SDS011;37112;45.892;-123.962;2022-12-07T10:55:05;0.50;;;0.50;;
51066;SDS011;37112;45.892;-123.962;2022-12-07T10:57:34;0.60;;;0.40;;
51066;SDS011;37112;45.892;-123.962;2022-12-07T11:00:08;0.50;;;0.50;;
51066;SDS011;37112;45.892;-123.962;2022-12-07T11:02:29;1.60;;;0.60;;
51066;SDS011;37112;45.892;-123.962;2022-12-07T11:04:58;0.40;;;0.40;;
51066;SDS011;37112;45.892;-123.962;2022-12-07T11:07:22;3.90;;;0.70;;
51066;SDS011;37112;45.892;-123.962;2022-12-07T11:09:56;0.50;;;0.50;;
51066;SDS011;37112;45.892;-123.962;2022-12-07T11:12:20;0.60;;;0.50;;
51066;SDS011;37112;45.892;-123.962;2022-12-07T11:14:45;0.50;;;0.50;;
51066;SDS011;37112;45.892;-123.962;2022-12-07T11:17:07;0.90;;;0.40;;
51066;SDS011;37112;45.892;-123.962;2022-12-07T11:19:39;2.00;;;0.70;;
51066;SDS011;37112;45.892;-123.962;2022-12-07T11:22:06;1.60;;;0.50;;
51066;SDS011;37112;45.892;-123.962;2022-12-07T11:24:27;5.20;;;1.80;;
51066;SDS011;37112;45.892;-123.962;2022-12-07T11:26:58;2.20;;;0.60;;
51066;SDS011;37112;45.892;-123.962;2022-12-07T11:29:24;0.70;;;0.60;;
51066;SDS011;37112;45.892;-123.962;2022-12-07T11:31:56;1.30;;;0.50;;
51066;SDS011;37112;45.892;-123.962;2022-12-07T11:34:19;0.40;;;0.40;;
51066;SDS011;37112;45.892;-123.962;2022-12-07T11:36:41;1.20;;;0.50;;
51066;SDS011;37112;45.892;-123.962;2022-12-07T11:38:59;0.90;;;0.50;;
51066;SDS011;37112;45.892;-123.962;2022-12-07T11:41:15;0.80;;;0.50;;
51066;SDS011;37112;45.892;-123.962;2022-12-07T11:43:37;0.50;;;0.50;;
51066;SDS011;37112;45.892;-123.962;2022-12-07T11:46:05;4.10;;;0.60;;
51066;SDS011;37112;45.892;-123.962;2022-12-07T11:48:24;0.50;;;0.50;;
51066;SDS011;37112;45.892;-123.962;2022-12-07T11:50:45;0.50;;;0.50;;
51066;SDS011;37112;45.892;-123.962;2022-12-07T11:53:02;0.60;;;0.50;;
51066;SDS011;37112;45.892;-123.962;2022-12-07T11:55:21;0.50;;;0.50;;
51066;SDS011;37112;45.892;-123.962;2022-12-07T11:57:41;0.50;;;0.50;;
51066;SDS011;37112;45.892;-123.962;2022-12-07T11:59:59;0.80;;;0.50;;
51066;SDS011;37112;45.892;-123.962;2022-12-07T12:02:15;1.00;;;0.50;;
51066;SDS011;37112;45.892;-123.962;2022-12-07T12:04:38;0.40;;;0.40;;
51066;SDS011;37112;45.892;-123.962;2022-12-07T12:07:03;1.30;;;0.60;;
51066;SDS011;37112;45.892;-123.962;2022-12-07T12:09:47;0.50;;;0.50;;
51066;SDS011;37112;45.892;-123.962;2022-12-07T12:12:07;0.50;;;0.50;;
51066;SDS011;37112;45.892;-123.962;2022-12-07T12:15:13;0.60;;;0.60;;
51066;SDS011;37112;45.892;-123.962;2022-12-07T12:17:39;0.50;;;0.50;;
51066;SDS011;37112;45.892;-123.962;2022-12-07T12:20:14;1.00;;;0.60;;
51066;SDS011;37112;45.892;-123.962;2022-12-07T12:22:35;0.50;;;0.50;;
51066;SDS011;37112;45.892;-123.962;2022-12-07T12:24:52;1.60;;;0.80;;
51066;SDS011;37112;45.892;-123.962;2022-12-07T12:27:07;2.60;;;0.60;;
51066;SDS011;37112;45.892;-123.962;2022-12-07T12:29:30;0.50;;;0.50;;
51066;SDS011;37112;45.892;-123.962;2022-12-07T12:31:46;2.40;;;0.50;;
51066;SDS011;37112;45.892;-123.962;2022-12-07T12:34:31;0.50;;;0.50;;
51066;SDS011;37112;45.892;-123.962;2022-12-07T12:36:56;1.70;;;0.50;;
51066;SDS011;37112;45.892;-123.962;2022-12-07T12:39:10;0.40;;;0.40;;
51066;SDS011;37112;45.892;-123.962;2022-12-07T12:50:19;0.50;;;0.50;;
51066;SDS011;37112;45.892;-123.962;2022-12-07T12:55:13;1.60;;;0.60;;
51066;SDS011;37112;45.892;-123.962;2022-12-07T12:57:29;0.50;;;0.50;;
51066;SDS011;37112;45.892;-123.962;2022-12-07T12:59:43;0.70;;;0.50;;
51066;SDS011;37112;45.892;-123.962;2022-12-07T13:02:19;2.80;;;0.60;;
51066;SDS011;37112;45.892;-123.962;2022-12-07T13:07:06;0.70;;;0.50;;
51066;SDS011;37112;45.892;-123.962;2022-12-07T13:09:45;0.80;;;0.60;;
51066;SDS011;37112;45.892;-123.962;2022-12-07T13:12:00;0.50;;;0.50;;
51066;SDS011;37112;45.892;-123.962;2022-12-07T13:16:52;0.40;;;0.40;;
51066;SDS011;37112;45.892;-123.962;2022-12-07T13:21:47;0.50;;;0.40;;
51066;SDS011;37112;45.892;-123.962;2022-12-07T13:24:01;1.10;;;0.70;;
51066;SDS011;37112;45.892;-123.962;2022-12-07T13:26:20;0.50;;;0.50;;
51066;SDS011;37112;45.892;-123.962;2022-12-07T13:28:45;0.50;;;0.50;;
51066;SDS011;37112;45.892;-123.962;2022-12-07T13:31:09;1.10;;;0.60;;
51066;SDS011;37112;45.892;-123.962;2022-12-07T13:33:41;4.50;;;0.50;;
51066;SDS011;37112;45.892;-123.962;2022-12-07T13:35:56;0.80;;;0.50;;